Terminal Aerodrome Forecast
Issued by NWS

Home | Current Version | Previous Version | Text Only | Print | Product List | Glossary On
Versions: 1 2 3 4 5 6 7 8 9 10 11 12 13 14 15 16 17 18 19 20 21 22 23 24 25 26 27 28 29 30 31 32 33 34 35
000
FTUS41 KBOX 212036 AAA
TAFBED
TAF AMD
KBED 212036Z 2121/2218 08008KT P6SM SCT020 BKN050
     FM220000 04003KT P6SM BKN020
     FM220300 VRB03KT P6SM OVC010
     FM220600 01006KT 3SM -SHRA BR OVC008
     FM221300 01009KT 2SM -SHRA BR OVC008=

USA.gov is the U.S. government's official web portal to all federal, state and local government web resources and services.